Time;durP1;ratioP1;P1;durP2;ratioP2;P2;SDS_P1;SDS_P2;PMS_P1;PMS_P2;Temp;Humidity;BMP_temperature;BMP_pressure;BME280_temperature;BME280_humidity;BME280_pressure;Samples;Min_cycle;Max_cycle;Signal;HPM_P1;HPM_P2
2022/09/01 00:01:51;;;;;;;19.87;17.77;;;14.20;99.90;;;;;;4950428;29;21282;-70
2022/09/01 00:04:22;;;;;;;22.53;19.10;;;14.20;99.90;;;;;;4951011;28;20422;-71
2022/09/01 00:06:48;;;;;;;20.50;17.87;;;14.20;99.90;;;;;;4950793;29;20471;-70
2022/09/01 00:09:17;;;;;;;22.03;19.27;;;14.20;99.90;;;;;;4950750;28;20437;-71
2022/09/01 00:11:45;;;;;;;20.70;17.50;;;14.20;99.90;;;;;;4950508;29;20648;-70
2022/09/01 00:14:12;;;;;;;17.37;15.67;;;14.20;99.90;;;;;;4942125;28;20429;-72
2022/09/01 00:16:38;;;;;;;25.97;20.40;;;14.10;99.90;;;;;;4950738;29;20455;-71
2022/09/01 00:19:04;;;;;;;21.03;18.37;;;14.10;99.90;;;;;;4948113;29;20421;-71
2022/09/01 00:21:33;;;;;;;23.57;19.20;;;14.10;99.90;;;;;;4949643;28;20432;-72
2022/09/01 00:23:59;;;;;;;18.53;16.80;;;14.10;99.90;;;;;;4947092;29;20415;-71
2022/09/01 00:26:26;;;;;;;19.30;17.30;;;14.10;99.90;;;;;;4949422;29;20476;-71
2022/09/01 00:28:51;;;;;;;20.73;18.50;;;14.10;99.90;;;;;;4947859;28;20916;-71
2022/09/01 00:31:18;;;;;;;22.87;19.50;;;14.10;99.90;;;;;;4942654;29;20459;-70
2022/09/01 00:33:45;;;;;;;21.67;16.37;;;14.10;99.90;;;;;;4940083;29;20177;-71
2022/09/01 00:36:10;;;;;;;23.70;18.87;;;14.00;99.90;;;;;;4944925;28;20773;-71
2022/09/01 00:38:36;;;;;;;17.60;15.80;;;14.00;99.90;;;;;;4946197;29;20434;-71
2022/09/01 00:41:03;;;;;;;20.30;18.10;;;14.00;99.90;;;;;;4945180;28;20208;-71
2022/09/01 00:43:39;;;;;;;19.87;17.77;;;14.00;99.90;;;;;;4944984;29;20566;-71
2022/09/01 00:46:09;;;;;;;19.33;17.07;;;14.00;99.90;;;;;;4948176;29;20467;-71
2022/09/01 00:48:36;;;;;;;18.57;16.73;;;14.00;99.90;;;;;;4945226;29;20583;-71
2022/09/01 00:51:03;;;;;;;20.40;18.20;;;14.00;99.90;;;;;;4947703;28;20432;-71
2022/09/01 00:53:29;;;;;;;21.57;18.40;;;13.90;99.90;;;;;;4953070;29;20494;-71
2022/09/01 00:55:55;;;;;;;26.27;20.10;;;13.90;99.90;;;;;;4948149;28;20416;-70
2022/09/01 00:58:21;;;;;;;18.23;16.20;;;13.90;99.90;;;;;;4951551;29;20428;-71
2022/09/01 02:31:24;;;;;;;23.10;18.40;;;13.20;99.90;;;;;;5775867;23;20896;-71
2022/09/01 02:33:51;;;;;;;20.70;17.23;;;13.20;99.90;;;;;;4952899;28;20416;-70
2022/09/01 02:36:18;;;;;;;21.27;18.93;;;13.10;99.90;;;;;;4954367;28;20416;-70
2022/09/01 02:38:44;;;;;;;23.23;19.77;;;13.10;99.90;;;;;;4955226;28;20413;-69
2022/09/01 02:41:13;;;;;;;22.13;17.63;;;13.10;99.90;;;;;;4955181;28;20500;-69
2022/09/01 02:43:39;;;;;;;22.43;19.63;;;13.10;99.90;;;;;;4933153;29;20417;-68
2022/09/01 02:46:05;;;;;;;23.70;18.83;;;13.10;99.90;;;;;;4936237;28;20477;-70
2022/09/01 02:48:36;;;;;;;22.60;17.43;;;13.00;99.90;;;;;;4939026;29;20437;-70
2022/09/01 02:51:06;;;;;;;20.57;18.37;;;13.00;99.90;;;;;;4941031;28;20441;-70
2022/09/01 02:53:33;;;;;;;18.57;16.63;;;13.00;99.90;;;;;;4939379;29;20417;-70
2022/09/01 02:56:01;;;;;;;20.93;18.73;;;13.00;99.90;;;;;;4941450;28;20432;-69
2022/09/01 02:58:28;;;;;;;22.87;17.20;;;13.00;99.90;;;;;;4935652;29;20413;-70
2022/09/01 03:00:57;;;;;;;20.30;16.50;;;13.00;99.90;;;;;;4936283;29;20776;-70
2022/09/01 03:03:24;;;;;;;20.87;18.10;;;13.00;99.90;;;;;;4939801;29;20429;-70
2022/09/01 03:05:54;;;;;;;18.47;16.67;;;12.90;99.90;;;;;;4943477;29;20487;-70
2022/09/01 03:08:21;;;;;;;22.17;17.53;;;12.90;99.90;;;;;;4939711;29;20497;-70
2022/09/01 03:10:47;;;;;;;20.17;17.97;;;12.90;99.90;;;;;;4943020;29;20469;-71
2022/09/01 03:13:15;;;;;;;19.90;17.73;;;12.90;99.90;;;;;;4939394;29;20422;-71
2022/09/01 03:15:42;;;;;;;18.90;16.33;;;12.90;99.90;;;;;;4942861;29;20178;-70
2022/09/01 03:18:09;;;;;;;22.73;18.20;;;12.90;99.90;;;;;;4939305;29;20505;-71
2022/09/01 03:20:38;;;;;;;18.80;16.83;;;12.80;99.90;;;;;;4942673;29;20433;-70
2022/09/01 03:23:06;;;;;;;19.90;17.60;;;12.80;99.90;;;;;;4939367;29;20430;-70
2022/09/01 03:25:33;;;;;;;24.27;19.13;;;12.80;99.90;;;;;;4942627;29;20459;-70
2022/09/01 03:28:00;;;;;;;21.47;18.20;;;12.80;99.90;;;;;;4939473;29;20509;-70
2022/09/01 03:30:28;;;;;;;18.87;16.90;;;12.80;99.90;;;;;;4942697;29;20424;-70
2022/09/01 03:32:58;;;;;;;22.97;17.97;;;12.70;99.90;;;;;;4938979;29;20459;-70
2022/09/01 03:35:24;;;;;;;20.67;17.10;;;12.70;99.90;;;;;;4942755;29;20420;-69
2022/09/01 03:37:51;;;;;;;18.73;16.60;;;12.70;99.90;;;;;;4939349;29;20439;-71
2022/09/01 03:40:18;;;;;;;21.77;18.03;;;12.70;99.90;;;;;;4943211;29;20926;-70
2022/09/01 03:42:44;;;;;;;22.57;17.90;;;12.70;99.90;;;;;;4939251;29;20945;-69
2022/09/01 03:45:14;;;;;;;22.93;18.70;;;12.70;99.90;;;;;;4943746;29;20445;-69
2022/09/01 03:47:42;;;;;;;21.10;18.73;;;12.70;99.90;;;;;;4932493;29;20434;-70
2022/09/01 03:50:19;;;;;;;26.13;21.73;;;12.70;99.90;;;;;;4943848;29;20426;-69
2022/09/01 03:52:57;;;;;;;27.00;19.53;;;12.70;99.90;;;;;;4932912;29;20803;-69
2022/09/01 03:55:27;;;;;;;23.60;18.63;;;12.70;99.90;;;;;;4944194;28;20416;-69
2022/09/01 03:57:55;;;;;;;25.63;18.20;;;12.70;99.90;;;;;;4935037;29;20445;-69
2022/09/01 04:00:28;;;;;;;20.47;18.10;;;12.70;99.90;;;;;;4944346;29;20452;-70
2022/09/01 04:02:56;;;;;;;19.30;16.63;;;12.60;99.90;;;;;;4939606;29;20447;-71
2022/09/01 04:05:27;;;;;;;24.23;19.30;;;12.60;99.90;;;;;;4944932;29;20986;-70
2022/09/01 04:07:55;;;;;;;20.73;17.63;;;12.60;99.90;;;;;;4939732;29;20429;-72
2022/09/01 04:10:21;;;;;;;20.10;17.63;;;12.60;99.90;;;;;;4934023;29;20793;-69
2022/09/01 04:12:47;;;;;;;19.20;17.10;;;12.60;99.90;;;;;;4944176;29;20846;-70
2022/09/01 04:15:15;;;;;;;19.20;17.20;;;12.60;99.90;;;;;;4934971;28;20940;-69
2022/09/01 04:20:26;;;;;;;20.83;17.17;;;12.60;99.90;;;;;;4937476;29;20419;-68
2022/09/01 04:22:52;;;;;;;21.77;17.70;;;12.60;99.90;;;;;;4939472;29;20873;-68
2022/09/01 04:25:26;;;;;;;22.57;17.83;;;12.60;99.90;;;;;;4936212;29;20181;-66
2022/09/01 04:27:55;;;;;;;23.33;17.30;;;12.70;99.90;;;;;;4935940;29;20560;-68
2022/09/01 04:30:25;;;;;;;25.10;18.23;;;12.70;99.90;;;;;;4932994;29;20508;-68
2022/09/01 04:32:54;;;;;;;20.83;17.70;;;12.70;99.90;;;;;;4941936;29;20459;-68
2022/09/01 04:35:19;;;;;;;25.50;17.80;;;12.60;99.90;;;;;;4934373;28;20436;-68
2022/09/01 04:37:46;;;;;;;27.17;18.17;;;12.60;99.90;;;;;;4943004;29;20428;-68
2022/09/01 04:40:13;;;;;;;19.50;17.03;;;12.60;99.90;;;;;;4938805;28;20256;-68
2022/09/01 04:42:41;;;;;;;21.13;18.47;;;12.60;99.90;;;;;;4941026;29;20436;-67
2022/09/01 04:45:09;;;;;;;19.23;17.20;;;12.60;99.90;;;;;;4939231;28;20420;-69
2022/09/01 04:47:36;;;;;;;23.63;18.47;;;12.60;99.90;;;;;;4947093;29;20437;-77
2022/09/01 04:50:12;;;;;;;19.63;17.07;;;12.60;99.90;;;;;;4940792;28;20916;-68
2022/09/01 04:52:37;;;;;;;20.20;16.73;;;12.60;99.90;;;;;;4935453;29;20954;-70
2022/09/01 04:55:07;;;;;;;23.23;18.40;;;12.60;99.90;;;;;;4939288;29;20425;-70
2022/09/01 04:57:33;;;;;;;17.83;15.97;;;12.60;99.90;;;;;;4931367;29;20182;-70
2022/09/01 04:59:59;;;;;;;22.83;17.97;;;12.60;99.90;;;;;;4932322;28;20799;-72
2022/09/01 05:02:27;;;;;;;20.77;17.97;;;12.60;99.90;;;;;;4936191;29;20482;-70
2022/09/01 05:04:53;;;;;;;25.83;18.00;;;12.60;99.90;;;;;;4933653;28;20428;-70
2022/09/01 05:07:20;;;;;;;20.43;16.93;;;12.70;99.90;;;;;;4936009;29;20457;-65
2022/09/01 05:09:46;;;;;;;23.10;17.73;;;12.70;99.90;;;;;;4934274;29;20433;-71
2022/09/01 05:12:11;;;;;;;22.67;18.87;;;12.70;99.90;;;;;;4929184;29;20472;-69
2022/09/01 05:14:42;;;;;;;21.73;19.23;;;12.80;99.90;;;;;;4944618;29;20556;-70
2022/09/01 05:17:10;;;;;;;21.57;18.53;;;12.80;99.90;;;;;;4943434;29;20263;-70
2022/09/01 05:19:42;;;;;;;21.70;19.40;;;12.90;99.90;;;;;;4936324;29;20425;-69
2022/09/01 05:22:09;;;;;;;20.23;17.90;;;12.90;99.90;;;;;;4943352;29;20439;-71
2022/09/01 05:24:35;;;;;;;26.50;20.03;;;12.90;99.90;;;;;;4944454;28;20417;-69
2022/09/01 05:27:03;;;;;;;22.13;17.90;;;13.10;99.90;;;;;;4943506;29;20971;-69
2022/09/01 05:29:28;;;;;;;23.37;18.43;;;13.10;99.90;;;;;;4945857;28;20420;-69
2022/09/01 05:31:54;;;;;;;22.57;17.67;;;13.30;99.90;;;;;;4942147;29;20514;-71
2022/09/01 05:34:28;;;;;;;20.93;17.87;;;13.40;99.90;;;;;;4947234;29;20635;-70
2022/09/01 05:36:58;;;;;;;18.53;16.67;;;13.60;99.90;;;;;;4942375;29;20713;-69
2022/09/01 05:39:24;;;;;;;21.90;18.20;;;13.80;99.90;;;;;;4946601;28;20479;-70
2022/09/01 05:41:50;;;;;;;19.07;17.03;;;14.00;99.90;;;;;;4941945;29;20481;-68
2022/09/01 05:44:15;;;;;;;19.67;16.30;;;14.10;99.90;;;;;;4940154;28;20436;-70
2022/09/01 05:46:43;;;;;;;19.83;17.03;;;14.30;99.90;;;;;;4941258;29;20827;-71
2022/09/01 05:49:12;;;;;;;18.27;16.27;;;14.50;99.90;;;;;;4941171;28;20287;-69
2022/09/01 05:51:41;;;;;;;20.80;18.37;;;14.50;99.90;;;;;;4940617;29;20476;-70
2022/09/01 05:54:08;;;;;;;20.50;18.10;;;14.50;99.90;;;;;;4941286;28;20841;-70
2022/09/01 05:56:34;;;;;;;23.83;20.30;;;14.50;99.90;;;;;;4936719;29;20545;-70
2022/09/01 05:59:01;;;;;;;26.37;19.70;;;14.50;99.90;;;;;;4937533;29;20871;-71
2022/09/01 06:01:31;;;;;;;21.93;19.60;;;14.50;99.90;;;;;;4939835;29;20444;-70
2022/09/01 06:03:58;;;;;;;22.37;18.80;;;14.50;99.90;;;;;;4942528;28;20432;-70
2022/09/01 06:06:27;;;;;;;21.30;19.10;;;14.60;99.90;;;;;;4939671;29;20472;-69
2022/09/01 06:08:57;;;;;;;21.43;18.50;;;14.80;99.90;;;;;;4942513;29;20522;-71
2022/09/01 06:11:25;;;;;;;25.13;19.77;;;14.90;99.90;;;;;;4939789;29;20440;-70
2022/09/01 06:13:57;;;;;;;24.03;19.53;;;15.00;99.90;;;;;;4943037;29;20425;-70
2022/09/01 06:16:23;;;;;;;24.10;19.80;;;14.90;99.90;;;;;;4940091;29;20424;-69
2022/09/01 06:18:52;;;;;;;24.23;21.00;;;15.00;99.90;;;;;;4942091;29;20421;-70
2022/09/01 06:21:17;;;;;;;22.20;19.90;;;15.10;99.90;;;;;;4939998;29;20201;-71
2022/09/01 06:23:44;;;;;;;24.97;22.20;;;15.10;99.90;;;;;;4943714;29;20984;-69
2022/09/01 06:26:30;;;;;;;27.37;20.47;;;15.20;99.90;;;;;;4940374;29;20292;-69
2022/09/01 06:29:02;;;;;;;25.70;21.13;;;15.30;99.90;;;;;;4937660;29;20421;-70
2022/09/01 06:31:37;;;;;;;24.27;21.50;;;15.40;99.90;;;;;;4940993;29;20532;-70
2022/09/01 06:34:05;;;;;;;23.80;20.13;;;15.50;99.90;;;;;;4941970;28;20846;-70
2022/09/01 06:36:35;;;;;;;24.30;20.13;;;15.60;99.90;;;;;;4941637;29;20465;-71
2022/09/01 06:39:00;;;;;;;23.13;19.40;;;15.60;99.90;;;;;;4942573;28;20487;-71
2022/09/01 06:41:27;;;;;;;24.33;21.70;;;15.80;99.90;;;;;;4941373;29;20966;-70
2022/09/01 06:43:53;;;;;;;25.10;21.43;;;16.00;99.90;;;;;;4943639;28;20186;-70
2022/09/01 06:46:20;;;;;;;22.97;20.50;;;16.20;99.90;;;;;;4940677;29;21019;-70
2022/09/01 06:48:46;;;;;;;22.87;20.37;;;16.40;99.90;;;;;;4944698;28;20446;-72
2022/09/01 06:51:15;;;;;;;22.07;18.57;;;16.50;99.90;;;;;;4940354;29;20985;-70
2022/09/01 06:53:43;;;;;;;24.03;19.20;;;16.60;99.90;;;;;;4930743;29;20484;-70
2022/09/01 06:56:12;;;;;;;21.07;18.70;;;16.80;99.90;;;;;;4940639;29;20425;-70
2022/09/01 06:58:40;;;;;;;22.17;18.20;;;17.10;99.90;;;;;;4938233;29;20500;-70
2022/09/01 07:01:19;;;;;;;25.00;18.30;;;17.20;99.90;;;;;;4932151;29;20484;-70
2022/09/01 07:03:49;;;;;;;19.97;17.87;;;17.50;99.90;;;;;;4931245;29;20516;-72
2022/09/01 07:06:16;;;;;;;20.73;17.50;;;17.80;99.90;;;;;;4940843;29;20457;-70
2022/09/01 07:08:48;;;;;;;19.23;16.70;;;18.20;99.90;;;;;;4945595;28;20807;-71
2022/09/01 07:11:23;;;;;;;19.77;17.77;;;18.30;99.90;;;;;;4940740;29;20504;-71
2022/09/01 07:13:52;;;;;;;24.17;17.93;;;18.60;99.90;;;;;;4944553;28;20421;-70
2022/09/01 07:16:21;;;;;;;17.30;15.40;;;18.90;99.90;;;;;;4940865;29;20425;-71
2022/09/01 07:18:48;;;;;;;20.03;15.77;;;18.90;99.90;;;;;;4938622;29;20425;-70
2022/09/01 07:21:13;;;;;;;21.07;16.03;;;19.00;99.90;;;;;;4941417;29;20444;-72
2022/09/01 07:23:40;;;;;;;18.53;15.00;;;18.90;99.90;;;;;;4938546;29;20417;-71
2022/09/01 07:26:06;;;;;;;21.10;16.37;;;18.80;99.90;;;;;;4941339;29;20201;-72
2022/09/01 07:28:32;;;;;;;22.80;13.90;;;18.90;99.90;;;;;;4939050;29;20425;-70
2022/09/01 07:30:59;;;;;;;15.27;13.67;;;19.10;99.90;;;;;;4941204;29;20288;-70
2022/09/01 07:33:26;;;;;;;15.63;14.00;;;19.40;99.90;;;;;;4939488;29;20816;-70
2022/09/01 07:35:56;;;;;;;18.80;16.67;;;19.60;99.90;;;;;;4941918;29;20432;-71
2022/09/01 07:38:23;;;;;;;18.33;15.20;;;19.60;99.90;;;;;;4940272;29;20795;-70
2022/09/01 07:40:51;;;;;;;15.40;13.73;;;19.60;99.90;;;;;;4941848;29;20803;-70
2022/09/01 07:43:23;;;;;;;18.00;14.50;;;19.60;99.90;;;;;;4939971;29;20431;-71
2022/09/01 07:45:51;;;;;;;15.60;13.70;;;19.80;99.90;;;;;;4942088;29;20465;-70
2022/09/01 07:48:21;;;;;;;15.80;14.10;;;20.10;99.90;;;;;;4940602;29;20946;-71
2022/09/01 07:50:48;;;;;;;18.40;15.30;;;20.20;99.90;;;;;;4936102;29;20923;-71
2022/09/01 07:53:21;;;;;;;16.70;15.10;;;20.20;99.90;;;;;;4939623;29;20413;-69
2022/09/01 07:55:49;;;;;;;17.93;14.30;;;20.20;99.90;;;;;;4942139;29;20429;-71
2022/09/01 07:58:17;;;;;;;18.60;13.53;;;20.20;99.90;;;;;;4939235;29;20898;-71
2022/09/01 08:00:44;;;;;;;15.80;13.70;;;20.20;99.90;;;;;;4941775;29;20427;-72
2022/09/01 08:03:10;;;;;;;14.57;13.07;;;20.20;99.90;;;;;;4940746;29;20423;-69
2022/09/01 08:05:36;;;;;;;17.93;15.27;;;20.10;99.90;;;;;;4934047;28;20456;-71
2022/09/01 08:08:01;;;;;;;14.20;12.50;;;19.90;99.90;;;;;;4940556;29;20562;-70
2022/09/01 08:10:27;;;;;;;14.33;12.80;;;19.80;99.90;;;;;;4943103;29;20184;-72
2022/09/01 08:12:53;;;;;;;13.00;11.73;;;19.70;99.90;;;;;;4939533;29;20200;-71
2022/09/01 08:15:19;;;;;;;12.63;10.87;;;19.60;99.90;;;;;;4944261;28;20188;-70
2022/09/01 08:17:45;;;;;;;12.30;11.10;;;19.50;99.90;;;;;;4936266;29;20780;-70
2022/09/01 08:20:11;;;;;;;13.23;11.93;;;19.40;99.90;;;;;;4945398;29;20240;-70
2022/09/01 08:22:37;;;;;;;11.87;10.67;;;19.50;99.90;;;;;;4937064;29;20198;-70
2022/09/01 08:25:08;;;;;;;13.60;12.00;;;19.50;99.90;;;;;;4945668;28;20425;-70
2022/09/01 08:27:40;;;;;;;14.77;12.20;;;19.50;99.90;;;;;;4934011;29;20511;-70
2022/09/01 08:30:09;;;;;;;13.53;12.17;;;19.40;99.90;;;;;;4938571;28;20464;-71
2022/09/01 08:32:36;;;;;;;14.70;10.47;;;19.40;99.90;;;;;;4937024;29;20519;-72
2022/09/01 08:35:03;;;;;;;13.73;12.33;;;19.30;99.90;;;;;;4938977;28;20425;-71
2022/09/01 08:37:29;;;;;;;11.40;10.33;;;19.30;99.90;;;;;;4937068;29;20457;-72
2022/09/01 08:39:55;;;;;;;13.23;10.80;;;19.30;99.90;;;;;;4939794;29;20429;-73
2022/09/01 08:42:41;;;;;;;11.47;10.30;;;19.30;99.90;;;;;;4935977;29;20456;-70
2022/09/01 08:45:21;;;;;;;10.20;9.20;;;19.40;99.90;;;;;;4930679;29;20188;-70
2022/09/01 08:47:48;;;;;;;9.70;8.77;;;19.50;99.90;;;;;;4936119;29;20926;-71
2022/09/01 08:50:14;;;;;;;10.17;9.23;;;19.60;99.90;;;;;;4937342;28;20516;-70
2022/09/01 08:52:51;;;;;;;12.80;9.13;;;19.80;99.90;;;;;;4938252;29;20437;-70
2022/09/01 08:55:40;;;;;;;10.30;9.30;;;19.90;99.90;;;;;;4936884;28;20418;-70
2022/09/01 08:58:09;;;;;;;9.13;8.30;;;20.00;99.90;;;;;;4939048;29;20408;-70
2022/09/01 09:00:43;;;;;;;7.40;6.60;;;20.00;99.90;;;;;;4934398;28;20500;-69
2022/09/01 09:03:33;;;;;;;7.60;6.90;;;20.00;99.90;;;;;;4942637;29;20423;-71
2022/09/01 09:06:06;;;;;;;10.83;6.77;;;20.00;99.90;;;;;;4931817;29;20460;-71
2022/09/01 09:08:44;;;;;;;7.53;6.93;;;19.90;99.90;;;;;;4940055;29;20770;-70
2022/09/01 09:11:46;;;;;;;6.37;5.80;;;19.90;99.90;;;;;;4937712;29;20456;-71
2022/09/01 09:14:24;;;;;;;8.20;5.93;;;19.90;99.90;;;;;;4939785;29;20428;-69
2022/09/01 09:16:53;;;;;;;8.10;7.17;;;19.90;99.90;;;;;;4940281;29;20413;-69
2022/09/01 09:19:38;;;;;;;6.80;6.20;;;19.70;99.90;;;;;;4943637;29;20432;-71
2022/09/01 09:22:09;;;;;;;7.07;6.43;;;19.60;99.90;;;;;;4942075;29;20441;-73
2022/09/01 09:24:51;;;;;;;7.80;7.10;;;19.50;99.90;;;;;;4942195;29;20469;-71
2022/09/01 09:27:24;;;;;;;7.40;6.60;;;19.40;99.90;;;;;;4937568;29;21086;-70
2022/09/01 09:29:55;;;;;;;8.80;7.90;;;19.40;99.90;;;;;;4929287;29;20422;-70
2022/09/01 09:32:22;;;;;;;8.60;7.80;;;19.60;99.90;;;;;;4937052;29;20460;-70
2022/09/01 09:34:49;;;;;;;9.40;8.00;;;19.70;99.90;;;;;;4934993;29;20505;-70
2022/09/01 09:37:30;;;;;;;8.10;7.40;;;19.70;99.90;;;;;;4937615;29;20421;-70
2022/09/01 09:40:15;;;;;;;9.17;6.60;;;19.70;99.90;;;;;;4929746;29;20420;-70
2022/09/01 09:42:54;;;;;;;8.97;7.13;;;19.60;99.90;;;;;;4936937;29;20553;-71
2022/09/01 09:45:40;;;;;;;8.07;7.10;;;19.60;99.90;;;;;;4936716;29;20552;-72
2022/09/01 09:48:26;;;;;;;9.13;7.33;;;19.60;99.90;;;;;;4936285;29;20503;-73
2022/09/01 09:50:52;;;;;;;7.70;7.00;;;19.70;99.90;;;;;;4933035;29;20449;-71
2022/09/01 09:53:27;;;;;;;7.53;6.70;;;19.70;99.90;;;;;;4944595;29;20448;-71
2022/09/01 09:56:23;;;;;;;8.17;7.37;;;19.80;99.90;;;;;;4938641;29;20185;-72
2022/09/01 09:58:51;;;;;;;7.70;6.93;;;19.90;99.90;;;;;;4938297;29;20417;-70
2022/09/01 10:01:22;;;;;;;8.50;7.20;;;20.00;99.90;;;;;;4938824;29;20469;-70
2022/09/01 10:03:53;;;;;;;8.10;7.20;;;20.10;99.90;;;;;;4944446;29;20945;-70
2022/09/01 10:06:29;;;;;;;8.70;7.83;;;20.20;99.90;;;;;;4939659;29;20839;-70
2022/09/01 10:08:54;;;;;;;7.73;7.00;;;20.40;99.90;;;;;;4937570;29;20491;-70
2022/09/01 10:11:32;;;;;;;8.00;7.40;;;20.60;99.90;;;;;;4944002;28;20987;-71
2022/09/01 10:13:57;;;;;;;8.23;6.13;;;21.20;99.90;;;;;;4938079;29;20177;-70
2022/09/01 10:16:31;;;;;;;8.03;7.20;;;21.70;99.90;;;;;;4944121;29;20421;-71
2022/09/01 10:18:59;;;;;;;7.60;6.90;;;21.70;99.90;;;;;;4938554;29;20181;-69
2022/09/01 10:21:39;;;;;;;8.00;7.20;;;21.40;99.90;;;;;;4943581;28;20526;-71
2022/09/01 10:24:21;;;;;;;7.40;6.60;;;21.20;99.90;;;;;;4940371;29;20519;-73
2022/09/01 10:26:51;;;;;;;6.97;6.33;;;20.80;99.90;;;;;;4936340;29;20469;-71
2022/09/01 10:29:51;;;;;;;7.33;6.63;;;20.80;99.90;;;;;;4932993;29;20435;-72
2022/09/01 10:32:21;;;;;;;12.13;6.70;;;20.90;99.90;;;;;;4938512;29;20512;-71
2022/09/01 10:34:47;;;;;;;9.00;6.10;;;21.40;99.90;;;;;;4932003;29;20429;-70
2022/09/01 10:37:14;;;;;;;6.67;5.40;;;22.50;99.90;;;;;;4938413;29;20429;-70
2022/09/01 10:40:13;;;;;;;5.77;5.37;;;23.60;99.90;;;;;;4937786;29;20441;-72
2022/09/01 10:42:42;;;;;;;6.43;5.90;;;24.60;99.90;;;;;;4935599;29;20443;-70
2022/09/01 10:45:38;;;;;;;5.07;4.67;;;24.90;99.90;;;;;;4937512;29;20413;-71
2022/09/01 10:48:26;;;;;;;6.40;5.83;;;25.40;99.90;;;;;;4928783;29;20421;-73
2022/09/01 10:51:13;;;;;;;8.60;4.90;;;25.50;99.90;;;;;;4936218;29;20972;-70
2022/09/01 10:53:45;;;;;;;6.00;4.60;;;25.20;99.90;;;;;;4935948;29;20425;-72
2022/09/01 10:56:13;;;;;;;6.67;4.23;;;25.40;99.90;;;;;;4938479;29;20418;-74
2022/09/01 10:59:00;;;;;;;4.67;4.30;;;25.30;99.90;;;;;;4943711;29;20409;-72
2022/09/01 11:01:43;;;;;;;6.27;3.73;;;25.50;99.90;;;;;;4939654;29;20447;-71
2022/09/01 11:04:15;;;;;;;3.50;3.30;;;26.10;99.90;;;;;;4938088;29;21771;-71
2022/09/01 11:06:40;;;;;;;3.83;3.50;;;26.40;99.90;;;;;;4934100;29;20453;-71
2022/09/01 11:09:25;;;;;;;3.60;3.40;;;27.10;99.90;;;;;;4937715;29;20448;-71
2022/09/01 11:12:10;;;;;;;4.30;4.00;;;27.50;99.90;;;;;;4935071;29;20205;-70
2022/09/01 11:14:48;;;;;;;4.23;3.83;;;26.80;99.90;;;;;;4945798;29;20421;-71
2022/09/01 11:17:23;;;;;;;5.10;3.70;;;26.50;99.90;;;;;;4941113;29;20798;-71
2022/09/01 11:19:57;;;;;;;5.23;4.10;;;25.90;99.90;;;;;;4938501;29;20417;-71
2022/09/01 11:22:38;;;;;;;4.57;4.20;;;25.10;99.90;;;;;;4940922;29;21162;-68
2022/09/01 11:25:25;;;;;;;4.60;4.17;;;24.30;99.90;;;;;;4938599;29;20580;-70
2022/09/01 11:27:51;;;;;;;5.13;4.73;;;23.30;99.90;;;;;;4940904;29;20417;-70
2022/09/01 11:30:22;;;;;;;7.80;4.60;;;22.70;99.90;;;;;;4938110;29;20432;-71
2022/09/01 11:32:56;;;;;;;5.00;4.57;;;22.40;99.90;;;;;;4941165;29;20252;-71
2022/09/01 11:35:25;;;;;;;4.37;4.07;;;22.20;99.90;;;;;;4938248;29;20429;-70
2022/09/01 11:37:54;;;;;;;4.07;3.67;;;22.40;99.90;;;;;;4941613;29;20425;-70
2022/09/01 11:40:24;;;;;;;4.63;4.33;;;22.50;99.90;;;;;;4938103;29;20413;-70
2022/09/01 11:42:53;;;;;;;4.80;4.50;;;22.40;99.90;;;;;;4941376;29;20437;-72
2022/09/01 11:45:32;;;;;;;4.40;4.20;;;22.30;99.90;;;;;;4938141;29;20429;-71
2022/09/01 11:48:04;;;;;;;4.20;3.80;;;22.70;99.90;;;;;;4931199;29;20948;-70
2022/09/01 11:50:36;;;;;;;3.93;3.67;;;23.20;99.90;;;;;;4939015;29;20493;-70
2022/09/01 11:53:18;;;;;;;6.93;3.70;;;23.40;99.90;;;;;;4940459;28;20997;-70
2022/09/01 11:55:50;;;;;;;4.30;4.00;;;23.50;99.90;;;;;;4935402;29;20428;-70
2022/09/01 11:58:27;;;;;;;8.53;2.93;;;23.70;99.90;;;;;;4936099;29;20428;-70
2022/09/01 12:00:55;;;;;;;3.70;3.37;;;23.80;99.90;;;;;;4942818;29;20446;-70
2022/09/01 12:03:28;;;;;;;4.90;4.40;;;23.90;99.90;;;;;;4937985;28;20426;-70
2022/09/01 12:06:03;;;;;;;4.10;3.80;;;24.20;99.90;;;;;;4942977;29;20459;-72
2022/09/01 12:08:36;;;;;;;4.00;3.70;;;23.90;99.90;;;;;;4936788;28;20841;-70
2022/09/01 12:11:05;;;;;;;3.60;3.30;;;23.90;99.90;;;;;;4944114;29;20957;-70
2022/09/01 12:13:30;;;;;;;4.20;3.90;;;23.90;99.90;;;;;;4936490;28;20445;-72
2022/09/01 12:16:05;;;;;;;5.27;4.80;;;23.70;99.90;;;;;;4942937;29;20456;-70
2022/09/01 12:18:34;;;;;;;8.30;4.17;;;23.50;99.90;;;;;;4936764;28;20203;-71
2022/09/01 12:21:03;;;;;;;4.53;4.13;;;23.40;99.90;;;;;;4943804;29;20476;-71
2022/09/01 12:23:35;;;;;;;4.70;4.40;;;23.50;99.90;;;;;;4936607;28;20520;-71
2022/09/01 12:26:04;;;;;;;3.73;3.53;;;23.50;99.90;;;;;;4943769;29;20535;-71
2022/09/01 12:28:32;;;;;;;4.83;4.47;;;23.50;99.90;;;;;;4936251;28;20525;-72
2022/09/01 12:31:04;;;;;;;5.93;3.90;;;23.40;99.90;;;;;;4942935;29;20517;-70
2022/09/01 12:33:31;;;;;;;4.13;3.70;;;23.10;99.90;;;;;;4936323;28;20461;-70
2022/09/01 12:36:15;;;;;;;4.20;4.00;;;23.00;99.90;;;;;;4943488;29;20431;-70
2022/09/01 12:38:41;;;;;;;4.13;3.80;;;23.00;99.90;;;;;;4930946;29;20421;-70
2022/09/01 12:41:31;;;;;;;4.00;3.60;;;23.10;99.90;;;;;;4944639;29;20956;-71
2022/09/01 12:44:30;;;;;;;3.93;3.63;;;23.20;99.90;;;;;;4934856;29;20189;-70
2022/09/01 12:47:28;;;;;;;4.30;4.00;;;23.20;99.90;;;;;;4935856;29;20468;-70
2022/09/01 12:49:53;;;;;;;4.20;3.67;;;23.20;99.90;;;;;;4919878;29;20417;-69
2022/09/01 12:52:20;;;;;;;4.03;3.60;;;23.30;99.90;;;;;;4942705;29;20451;-71
2022/09/01 12:54:48;;;;;;;3.00;2.87;;;23.30;99.90;;;;;;4938376;29;20178;-70
2022/09/01 12:57:27;;;;;;;3.27;3.07;;;23.00;99.90;;;;;;4935918;29;20853;-72
2022/09/01 13:00:14;;;;;;;4.20;4.00;;;23.00;99.90;;;;;;4938836;29;20421;-70
2022/09/01 13:02:42;;;;;;;3.50;3.30;;;23.10;99.90;;;;;;4942819;29;20836;-73
2022/09/01 13:05:29;;;;;;;3.93;3.70;;;23.20;99.90;;;;;;4938823;29;20449;-71
2022/09/01 13:07:58;;;;;;;3.50;3.30;;;23.30;99.90;;;;;;4936704;29;20807;-71
2022/09/01 13:10:27;;;;;;;3.20;3.00;;;23.30;99.90;;;;;;4941064;28;20441;-72
2022/09/01 13:12:53;;;;;;;4.20;3.90;;;23.50;99.90;;;;;;4941950;28;20444;-73
2022/09/01 13:15:19;;;;;;;7.27;3.90;;;23.60;99.90;;;;;;4939503;29;20417;-73
2022/09/01 13:17:45;;;;;;;3.53;3.23;;;23.60;99.90;;;;;;4943180;28;20440;-71
2022/09/01 13:20:11;;;;;;;3.17;2.97;;;23.70;99.90;;;;;;4939004;29;20185;-72
2022/09/01 13:22:37;;;;;;;3.20;2.83;;;23.70;99.90;;;;;;4936296;29;20455;-71
2022/09/01 13:25:04;;;;;;;3.73;3.43;;;23.60;99.90;;;;;;4939314;29;20264;-71
2022/09/01 13:27:29;;;;;;;4.07;3.77;;;23.50;99.90;;;;;;4937004;29;20838;-73
2022/09/01 13:29:55;;;;;;;5.03;4.63;;;23.40;99.90;;;;;;4943255;29;20425;-71
2022/09/01 13:32:22;;;;;;;3.67;3.33;;;23.30;99.90;;;;;;4941027;29;20216;-71
2022/09/01 13:34:49;;;;;;;4.30;4.00;;;23.30;99.90;;;;;;4943395;29;20180;-71
2022/09/01 13:37:15;;;;;;;3.83;3.53;;;23.10;99.90;;;;;;4941602;29;20416;-71
2022/09/01 13:39:40;;;;;;;4.20;4.00;;;23.00;99.90;;;;;;4943366;29;20439;-73
2022/09/01 13:42:06;;;;;;;4.47;4.23;;;22.90;99.90;;;;;;4940529;29;20679;-72
2022/09/01 13:44:32;;;;;;;4.80;4.30;;;22.70;99.90;;;;;;4943814;28;20256;-71
2022/09/01 13:46:58;;;;;;;4.57;4.27;;;22.70;99.90;;;;;;4939777;29;20828;-72
2022/09/01 13:49:23;;;;;;;4.07;3.77;;;22.70;99.90;;;;;;4945267;29;20461;-72
2022/09/01 13:51:52;;;;;;;4.73;4.20;;;22.80;99.90;;;;;;4938960;29;20201;-71
2022/09/01 13:54:18;;;;;;;3.93;3.70;;;22.90;99.90;;;;;;4946069;28;20207;-72
2022/09/01 13:56:44;;;;;;;3.43;3.23;;;23.10;99.90;;;;;;4937235;29;20783;-72
2022/09/01 13:59:09;;;;;;;3.70;3.50;;;23.30;99.90;;;;;;4947199;29;20413;-71
2022/09/01 14:01:35;;;;;;;5.90;4.17;;;23.40;99.90;;;;;;4938264;29;20209;-72
2022/09/01 14:04:03;;;;;;;3.40;3.20;;;23.40;99.90;;;;;;4953664;29;20212;-71
2022/09/01 14:06:28;;;;;;;3.50;3.30;;;23.40;99.90;;;;;;4938985;28;20256;-70
2022/09/01 14:08:54;;;;;;;3.77;3.57;;;23.40;99.90;;;;;;4945117;29;20925;-71
2022/09/01 14:11:19;;;;;;;3.40;3.20;;;23.30;99.90;;;;;;4940181;29;20753;-71
2022/09/01 14:13:45;;;;;;;4.13;3.83;;;23.40;99.90;;;;;;4943574;29;20233;-72
2022/09/01 14:16:13;;;;;;;3.73;3.53;;;23.40;99.90;;;;;;4941809;28;20643;-72
2022/09/01 14:18:39;;;;;;;4.70;4.03;;;23.30;99.90;;;;;;4939604;29;20794;-71
2022/09/01 14:21:09;;;;;;;3.60;3.40;;;23.20;99.90;;;;;;4942681;28;20457;-72
2022/09/01 14:23:34;;;;;;;3.83;3.60;;;23.30;99.90;;;;;;4942625;29;20208;-71
2022/09/01 14:26:00;;;;;;;4.10;3.80;;;23.30;99.90;;;;;;4943120;29;20457;-72